sensor_id;sensor_type;location;lat;lon;timestamp;pressure;altitude;pressure_sealevel;temperature;humidity
8585;BME280;7180;52.742;11.420;2023-04-15T00:00:27;100300.81;;;6.88;100.00
8585;BME280;7180;52.742;11.420;2023-04-15T00:02:53;100301.84;;;6.86;100.00
8585;BME280;7180;52.742;11.420;2023-04-15T00:05:19;100301.31;;;6.96;100.00
8585;BME280;7180;52.742;11.420;2023-04-15T00:07:44;100293.47;;;6.96;100.00
8585;BME280;7180;52.742;11.420;2023-04-15T00:10:11;100285.84;;;6.92;100.00
8585;BME280;7180;52.742;11.420;2023-04-15T00:12:36;100285.00;;;6.91;100.00
8585;BME280;7180;52.742;11.420;2023-04-15T00:15:02;100283.31;;;6.90;100.00
8585;BME280;7180;52.742;11.420;2023-04-15T00:17:28;100273.00;;;6.87;100.00
8585;BME280;7180;52.742;11.420;2023-04-15T00:19:53;100273.78;;;7.06;100.00
8585;BME280;7180;52.742;11.420;2023-04-15T00:22:18;100267.47;;;6.93;100.00
8585;BME280;7180;52.742;11.420;2023-04-15T00:24:43;100262.81;;;7.00;100.00
8585;BME280;7180;52.742;11.420;2023-04-15T00:27:09;100253.56;;;7.10;100.00
8585;BME280;7180;52.742;11.420;2023-04-15T00:29:34;100254.72;;;7.04;100.00
8585;BME280;7180;52.742;11.420;2023-04-15T00:31:59;100249.03;;;7.13;100.00
8585;BME280;7180;52.742;11.420;2023-04-15T00:34:26;100246.09;;;7.02;100.00
8585;BME280;7180;52.742;11.420;2023-04-15T00:36:52;100239.19;;;7.01;100.00
8585;BME280;7180;52.742;11.420;2023-04-15T00:39:17;100240.34;;;6.96;100.00
8585;BME280;7180;52.742;11.420;2023-04-15T00:41:43;100236.75;;;6.98;100.00
8585;BME280;7180;52.742;11.420;2023-04-15T00:44:09;100227.06;;;7.00;100.00
8585;BME280;7180;52.742;11.420;2023-04-15T00:46:36;100226.66;;;7.08;100.00
8585;BME280;7180;52.742;11.420;2023-04-15T00:49:06;100227.88;;;7.01;100.00
8585;BME280;7180;52.742;11.420;2023-04-15T00:51:32;100228.91;;;6.98;100.00
8585;BME280;7180;52.742;11.420;2023-04-15T00:54:00;100214.97;;;6.98;100.00
8585;BME280;7180;52.742;11.420;2023-04-15T00:56:27;100220.44;;;7.10;100.00
8585;BME280;7180;52.742;11.420;2023-04-15T00:58:53;100221.97;;;6.97;100.00
8585;BME280;7180;52.742;11.420;2023-04-15T01:01:23;100210.63;;;6.98;100.00
8585;BME280;7180;52.742;11.420;2023-04-15T01:03:50;100212.13;;;7.02;100.00
8585;BME280;7180;52.742;11.420;2023-04-15T01:06:16;100216.06;;;6.94;100.00
8585;BME280;7180;52.742;11.420;2023-04-15T01:08:42;100208.53;;;7.05;100.00
8585;BME280;7180;52.742;11.420;2023-04-15T01:11:08;100210.44;;;7.01;100.00
8585;BME280;7180;52.742;11.420;2023-04-15T01:13:34;100198.84;;;7.07;100.00
8585;BME280;7180;52.742;11.420;2023-04-15T01:16:00;100200.00;;;7.01;100.00
8585;BME280;7180;52.742;11.420;2023-04-15T01:18:27;100200.06;;;7.00;100.00
8585;BME280;7180;52.742;11.420;2023-04-15T01:20:53;100194.59;;;7.04;100.00
8585;BME280;7180;52.742;11.420;2023-04-15T01:23:20;100191.69;;;7.10;100.00
8585;BME280;7180;52.742;11.420;2023-04-15T01:25:46;100190.69;;;7.13;100.00
8585;BME280;7180;52.742;11.420;2023-04-15T01:28:13;100188.59;;;7.02;100.00
8585;BME280;7180;52.742;11.420;2023-04-15T01:30:38;100178.16;;;7.02;100.00
8585;BME280;7180;52.742;11.420;2023-04-15T01:33:03;100176.16;;;7.07;100.00
8585;BME280;7180;52.742;11.420;2023-04-15T01:35:29;100169.53;;;7.17;100.00
8585;BME280;7180;52.742;11.420;2023-04-15T01:38:07;100173.22;;;7.13;100.00
8585;BME280;7180;52.742;11.420;2023-04-15T01:40:33;100183.00;;;7.10;100.00
8585;BME280;7180;52.742;11.420;2023-04-15T01:42:59;100177.22;;;7.20;100.00
8585;BME280;7180;52.742;11.420;2023-04-15T01:45:25;100177.63;;;7.13;100.00
8585;BME280;7180;52.742;11.420;2023-04-15T01:47:50;100176.00;;;7.10;100.00
8585;BME280;7180;52.742;11.420;2023-04-15T01:50:15;100166.28;;;7.29;100.00
8585;BME280;7180;52.742;11.420;2023-04-15T01:52:41;100169.84;;;7.28;100.00
8585;BME280;7180;52.742;11.420;2023-04-15T01:55:07;100172.91;;;7.19;100.00
8585;BME280;7180;52.742;11.420;2023-04-15T01:57:32;100163.22;;;7.21;100.00
8585;BME280;7180;52.742;11.420;2023-04-15T01:59:57;100153.22;;;7.29;100.00
8585;BME280;7180;52.742;11.420;2023-04-15T02:02:23;100168.28;;;7.24;100.00
8585;BME280;7180;52.742;11.420;2023-04-15T02:04:48;100156.44;;;7.34;100.00
8585;BME280;7180;52.742;11.420;2023-04-15T02:07:14;100159.06;;;7.34;100.00
8585;BME280;7180;52.742;11.420;2023-04-15T02:09:39;100155.50;;;7.35;100.00
8585;BME280;7180;52.742;11.420;2023-04-15T02:12:05;100154.66;;;7.35;100.00
8585;BME280;7180;52.742;11.420;2023-04-15T02:14:30;100145.91;;;7.36;100.00
8585;BME280;7180;52.742;11.420;2023-04-15T02:16:55;100146.25;;;7.46;100.00
8585;BME280;7180;52.742;11.420;2023-04-15T02:19:21;100143.31;;;7.52;100.00
8585;BME280;7180;52.742;11.420;2023-04-15T02:21:46;100143.56;;;7.47;100.00
8585;BME280;7180;52.742;11.420;2023-04-15T02:24:11;100144.28;;;7.33;100.00
8585;BME280;7180;52.742;11.420;2023-04-15T02:26:36;100149.81;;;7.45;100.00
8585;BME280;7180;52.742;11.420;2023-04-15T02:29:02;100146.72;;;7.54;100.00
8585;BME280;7180;52.742;11.420;2023-04-15T02:31:27;100140.78;;;7.50;100.00
8585;BME280;7180;52.742;11.420;2023-04-15T02:33:52;100133.25;;;7.44;100.00
8585;BME280;7180;52.742;11.420;2023-04-15T02:36:18;100141.03;;;7.46;100.00
8585;BME280;7180;52.742;11.420;2023-04-15T02:38:45;100129.81;;;7.44;100.00
8585;BME280;7180;52.742;11.420;2023-04-15T02:41:10;100136.63;;;7.46;100.00
8585;BME280;7180;52.742;11.420;2023-04-15T02:43:35;100139.03;;;7.51;100.00
8585;BME280;7180;52.742;11.420;2023-04-15T02:46:01;100130.06;;;7.55;100.00
8585;BME280;7180;52.742;11.420;2023-04-15T02:48:26;100130.50;;;7.47;100.00
8585;BME280;7180;52.742;11.420;2023-04-15T02:50:51;100133.25;;;7.44;100.00
8585;BME280;7180;52.742;11.420;2023-04-15T02:53:16;100131.91;;;7.37;100.00
8585;BME280;7180;52.742;11.420;2023-04-15T02:55:42;100132.75;;;7.38;100.00
8585;BME280;7180;52.742;11.420;2023-04-15T02:58:07;100131.59;;;7.43;100.00
8585;BME280;7180;52.742;11.420;2023-04-15T03:00:32;100132.09;;;7.50;100.00
8585;BME280;7180;52.742;11.420;2023-04-15T03:03:02;100135.31;;;7.55;100.00
8585;BME280;7180;52.742;11.420;2023-04-15T03:05:28;100136.25;;;7.54;100.00
8585;BME280;7180;52.742;11.420;2023-04-15T03:07:53;100138.47;;;7.44;100.00
8585;BME280;7180;52.742;11.420;2023-04-15T03:10:19;100133.44;;;7.41;100.00
8585;BME280;7180;52.742;11.420;2023-04-15T03:12:45;100135.47;;;7.52;100.00
8585;BME280;7180;52.742;11.420;2023-04-15T03:15:10;100131.31;;;7.48;100.00
8585;BME280;7180;52.742;11.420;2023-04-15T03:17:36;100133.78;;;7.51;100.00
8585;BME280;7180;52.742;11.420;2023-04-15T03:20:02;100136.16;;;7.55;100.00
8585;BME280;7180;52.742;11.420;2023-04-15T03:22:29;100137.28;;;7.67;100.00
8585;BME280;7180;52.742;11.420;2023-04-15T03:24:54;100125.00;;;7.52;100.00
8585;BME280;7180;52.742;11.420;2023-04-15T03:27:20;100134.97;;;7.45;100.00
8585;BME280;7180;52.742;11.420;2023-04-15T03:29:45;62597.66;;;-142.35;100.00
8585;BME280;7180;52.742;11.420;2023-04-15T03:32:10;62597.66;;;-142.35;100.00
8585;BME280;7180;52.742;11.420;2023-04-15T03:34:36;62597.66;;;-142.35;100.00
8585;BME280;7180;52.742;11.420;2023-04-15T03:37:02;62597.66;;;-142.35;100.00
8585;BME280;7180;52.742;11.420;2023-04-15T03:39:27;62597.66;;;-142.35;100.00
8585;BME280;7180;52.742;11.420;2023-04-15T03:41:52;62597.66;;;-142.35;100.00
8585;BME280;7180;52.742;11.420;2023-04-15T03:44:17;62597.66;;;-142.35;100.00
8585;BME280;7180;52.742;11.420;2023-04-15T03:46:43;62597.66;;;-142.35;100.00
8585;BME280;7180;52.742;11.420;2023-04-15T03:49:08;62597.66;;;-142.35;100.00
8585;BME280;7180;52.742;11.420;2023-04-15T03:51:33;62597.66;;;-142.35;100.00
8585;BME280;7180;52.742;11.420;2023-04-15T03:53:59;62597.66;;;-142.35;100.00
8585;BME280;7180;52.742;11.420;2023-04-15T03:56:24;62597.66;;;-142.35;100.00
8585;BME280;7180;52.742;11.420;2023-04-15T03:58:50;62597.66;;;-142.35;100.00
8585;BME280;7180;52.742;11.420;2023-04-15T04:01:15;62597.66;;;-142.35;100.00
8585;BME280;7180;52.742;11.420;2023-04-15T04:03:41;62597.66;;;-142.35;100.00
8585;BME280;7180;52.742;11.420;2023-04-15T04:06:06;62597.66;;;-142.35;100.00
8585;BME280;7180;52.742;11.420;2023-04-15T04:08:32;62597.66;;;-142.35;100.00
8585;BME280;7180;52.742;11.420;2023-04-15T04:10:57;62597.66;;;-142.35;100.00
8585;BME280;7180;52.742;11.420;2023-04-15T04:13:23;62597.66;;;-142.35;100.00
8585;BME280;7180;52.742;11.420;2023-04-15T04:15:48;62597.66;;;-142.35;100.00
8585;BME280;7180;52.742;11.420;2023-04-15T04:18:13;62597.66;;;-142.35;100.00
8585;BME280;7180;52.742;11.420;2023-04-15T04:20:38;62597.66;;;-142.35;100.00
8585;BME280;7180;52.742;11.420;2023-04-15T04:23:04;62597.66;;;-142.35;100.00
8585;BME280;7180;52.742;11.420;2023-04-15T04:25:29;62597.66;;;-142.35;100.00
8585;BME280;7180;52.742;11.420;2023-04-15T04:27:54;62597.66;;;-142.35;100.00
8585;BME280;7180;52.742;11.420;2023-04-15T04:30:20;62597.66;;;-142.35;100.00
8585;BME280;7180;52.742;11.420;2023-04-15T04:32:45;62597.66;;;-142.35;100.00
8585;BME280;7180;52.742;11.420;2023-04-15T04:35:10;62597.66;;;-142.35;100.00
8585;BME280;7180;52.742;11.420;2023-04-15T04:37:36;62597.66;;;-142.35;100.00
8585;BME280;7180;52.742;11.420;2023-04-15T04:40:01;62597.66;;;-142.35;100.00
8585;BME280;7180;52.742;11.420;2023-04-15T04:42:26;62597.66;;;-142.35;100.00
8585;BME280;7180;52.742;11.420;2023-04-15T04:44:51;62597.66;;;-142.35;100.00
8585;BME280;7180;52.742;11.420;2023-04-15T04:47:17;62597.66;;;-142.35;100.00
8585;BME280;7180;52.742;11.420;2023-04-15T04:49:42;62597.66;;;-142.35;100.00
8585;BME280;7180;52.742;11.420;2023-04-15T04:52:08;62597.66;;;-142.35;100.00
8585;BME280;7180;52.742;11.420;2023-04-15T04:54:33;62597.66;;;-142.35;100.00
8585;BME280;7180;52.742;11.420;2023-04-15T04:56:58;62597.66;;;-142.35;100.00
8585;BME280;7180;52.742;11.420;2023-04-15T04:59:24;62597.66;;;-142.35;100.00
8585;BME280;7180;52.742;11.420;2023-04-15T05:01:49;62597.66;;;-142.35;100.00
8585;BME280;7180;52.742;11.420;2023-04-15T05:04:15;62597.66;;;-142.35;100.00
8585;BME280;7180;52.742;11.420;2023-04-15T05:06:40;62597.66;;;-142.35;100.00
8585;BME280;7180;52.742;11.420;2023-04-15T05:09:05;62597.66;;;-142.35;100.00
8585;BME280;7180;52.742;11.420;2023-04-15T05:11:31;62597.66;;;-142.35;100.00
8585;BME280;7180;52.742;11.420;2023-04-15T05:13:56;62597.66;;;-142.35;100.00
8585;BME280;7180;52.742;11.420;2023-04-15T05:16:22;62597.66;;;-142.35;100.00
8585;BME280;7180;52.742;11.420;2023-04-15T05:18:47;62597.66;;;-142.35;100.00
8585;BME280;7180;52.742;11.420;2023-04-15T05:21:13;62597.66;;;-142.35;100.00
8585;BME280;7180;52.742;11.420;2023-04-15T05:23:38;62597.66;;;-142.35;100.00
8585;BME280;7180;52.742;11.420;2023-04-15T05:26:04;62597.66;;;-142.35;100.00
8585;BME280;7180;52.742;11.420;2023-04-15T05:28:29;62597.66;;;-142.35;100.00
8585;BME280;7180;52.742;11.420;2023-04-15T05:30:54;62597.66;;;-142.35;100.00
8585;BME280;7180;52.742;11.420;2023-04-15T05:33:20;62597.66;;;-142.35;100.00
8585;BME280;7180;52.742;11.420;2023-04-15T05:35:45;62597.66;;;-142.35;100.00
8585;BME280;7180;52.742;11.420;2023-04-15T05:38:11;62597.66;;;-142.35;100.00
8585;BME280;7180;52.742;11.420;2023-04-15T05:40:36;62597.66;;;-142.35;100.00
8585;BME280;7180;52.742;11.420;2023-04-15T05:43:01;62597.66;;;-142.35;100.00
8585;BME280;7180;52.742;11.420;2023-04-15T05:45:26;62597.66;;;-142.35;100.00
8585;BME280;7180;52.742;11.420;2023-04-15T05:47:52;62597.66;;;-142.35;100.00
8585;BME280;7180;52.742;11.420;2023-04-15T05:50:18;62597.66;;;-142.35;100.00
8585;BME280;7180;52.742;11.420;2023-04-15T05:52:44;62597.66;;;-142.35;100.00
8585;BME280;7180;52.742;11.420;2023-04-15T05:55:10;62597.66;;;-142.35;100.00
8585;BME280;7180;52.742;11.420;2023-04-15T05:57:49;62597.66;;;-142.35;100.00
8585;BME280;7180;52.742;11.420;2023-04-15T06:00:15;62597.66;;;-142.35;100.00
8585;BME280;7180;52.742;11.420;2023-04-15T06:02:40;62597.66;;;-142.35;100.00
8585;BME280;7180;52.742;11.420;2023-04-15T06:05:06;62597.66;;;-142.35;100.00
8585;BME280;7180;52.742;11.420;2023-04-15T06:07:35;62597.66;;;-142.35;100.00
8585;BME280;7180;52.742;11.420;2023-04-15T06:10:01;62597.66;;;-142.35;100.00
8585;BME280;7180;52.742;11.420;2023-04-15T06:12:27;62597.66;;;-142.35;100.00
8585;BME280;7180;52.742;11.420;2023-04-15T06:14:52;62597.66;;;-142.35;100.00
8585;BME280;7180;52.742;11.420;2023-04-15T06:17:18;62597.66;;;-142.35;100.00
8585;BME280;7180;52.742;11.420;2023-04-15T06:19:43;62597.66;;;-142.35;100.00
8585;BME280;7180;52.742;11.420;2023-04-15T06:22:08;62597.66;;;-142.35;100.00
8585;BME280;7180;52.742;11.420;2023-04-15T06:24:33;62597.66;;;-142.35;100.00
8585;BME280;7180;52.742;11.420;2023-04-15T06:27:01;62597.66;;;-142.35;100.00
8585;BME280;7180;52.742;11.420;2023-04-15T06:29:26;62597.66;;;-142.35;100.00
8585;BME280;7180;52.742;11.420;2023-04-15T06:31:51;62597.66;;;-142.35;100.00
8585;BME280;7180;52.742;11.420;2023-04-15T06:34:17;62597.66;;;-142.35;100.00
8585;BME280;7180;52.742;11.420;2023-04-15T06:36:42;62597.66;;;-142.35;100.00
8585;BME280;7180;52.742;11.420;2023-04-15T06:39:07;62597.66;;;-142.35;100.00
8585;BME280;7180;52.742;11.420;2023-04-15T06:41:32;62597.66;;;-142.35;100.00
8585;BME280;7180;52.742;11.420;2023-04-15T06:43:58;62597.66;;;-142.35;100.00
8585;BME280;7180;52.742;11.420;2023-04-15T06:46:23;62597.66;;;-142.35;100.00
8585;BME280;7180;52.742;11.420;2023-04-15T06:48:48;62597.66;;;-142.35;100.00
8585;BME280;7180;52.742;11.420;2023-04-15T06:51:14;62597.66;;;-142.35;100.00
8585;BME280;7180;52.742;11.420;2023-04-15T06:53:39;62597.66;;;-142.35;100.00
8585;BME280;7180;52.742;11.420;2023-04-15T06:56:06;62597.66;;;-142.35;100.00
8585;BME280;7180;52.742;11.420;2023-04-15T06:58:31;62597.66;;;-142.35;100.00
8585;BME280;7180;52.742;11.420;2023-04-15T07:00:57;62597.66;;;-142.35;100.00
8585;BME280;7180;52.742;11.420;2023-04-15T07:03:22;62597.66;;;-142.35;100.00
8585;BME280;7180;52.742;11.420;2023-04-15T07:05:47;62597.66;;;-142.35;100.00
8585;BME280;7180;52.742;11.420;2023-04-15T07:08:13;62597.66;;;-142.35;100.00
8585;BME280;7180;52.742;11.420;2023-04-15T07:10:38;62597.66;;;-142.35;100.00
8585;BME280;7180;52.742;11.420;2023-04-15T07:13:04;62597.66;;;-142.35;100.00
8585;BME280;7180;52.742;11.420;2023-04-15T07:15:29;62597.66;;;-142.35;100.00
8585;BME280;7180;52.742;11.420;2023-04-15T07:17:55;62597.66;;;-142.35;100.00
8585;BME280;7180;52.742;11.420;2023-04-15T07:20:20;62597.66;;;-142.35;100.00
8585;BME280;7180;52.742;11.420;2023-04-15T07:22:45;62597.66;;;-142.35;100.00
8585;BME280;7180;52.742;11.420;2023-04-15T07:25:10;62597.66;;;-142.35;100.00
8585;BME280;7180;52.742;11.420;2023-04-15T07:27:36;62597.66;;;-142.35;100.00
8585;BME280;7180;52.742;11.420;2023-04-15T07:30:01;62597.66;;;-142.35;100.00
8585;BME280;7180;52.742;11.420;2023-04-15T07:32:27;62597.66;;;-142.35;100.00
8585;BME280;7180;52.742;11.420;2023-04-15T07:34:52;62597.66;;;-142.35;100.00
8585;BME280;7180;52.742;11.420;2023-04-15T07:37:17;62597.66;;;-142.35;100.00
8585;BME280;7180;52.742;11.420;2023-04-15T07:39:42;62597.66;;;-142.35;100.00
8585;BME280;7180;52.742;11.420;2023-04-15T07:42:08;62597.66;;;-142.35;100.00
8585;BME280;7180;52.742;11.420;2023-04-15T07:44:34;62597.66;;;-142.35;100.00
8585;BME280;7180;52.742;11.420;2023-04-15T07:47:01;62597.66;;;-142.35;100.00
8585;BME280;7180;52.742;11.420;2023-04-15T07:49:26;62597.66;;;-142.35;100.00
8585;BME280;7180;52.742;11.420;2023-04-15T07:51:52;62597.66;;;-142.35;100.00
8585;BME280;7180;52.742;11.420;2023-04-15T07:54:17;62597.66;;;-142.35;100.00
8585;BME280;7180;52.742;11.420;2023-04-15T07:56:42;62597.66;;;-142.35;100.00
8585;BME280;7180;52.742;11.420;2023-04-15T07:59:08;62597.66;;;-142.35;100.00
8585;BME280;7180;52.742;11.420;2023-04-15T08:01:34;62597.66;;;-142.35;100.00
8585;BME280;7180;52.742;11.420;2023-04-15T08:03:59;62597.66;;;-142.35;100.00
8585;BME280;7180;52.742;11.420;2023-04-15T08:06:25;62597.66;;;-142.35;100.00
8585;BME280;7180;52.742;11.420;2023-04-15T08:08:51;62597.66;;;-142.35;100.00
8585;BME280;7180;52.742;11.420;2023-04-15T08:11:16;62597.66;;;-142.35;100.00
8585;BME280;7180;52.742;11.420;2023-04-15T08:13:42;62597.66;;;-142.35;100.00
8585;BME280;7180;52.742;11.420;2023-04-15T08:16:25;62597.66;;;-142.35;100.00
8585;BME280;7180;52.742;11.420;2023-04-15T08:18:54;62597.66;;;-142.35;100.00
8585;BME280;7180;52.742;11.420;2023-04-15T08:21:20;62597.66;;;-142.35;100.00
8585;BME280;7180;52.742;11.420;2023-04-15T08:23:47;62597.66;;;-142.35;100.00
8585;BME280;7180;52.742;11.420;2023-04-15T08:26:13;62597.66;;;-142.35;100.00
8585;BME280;7180;52.742;11.420;2023-04-15T08:28:41;62597.66;;;-142.35;100.00
8585;BME280;7180;52.742;11.420;2023-04-15T08:31:07;62597.66;;;-142.35;100.00
8585;BME280;7180;52.742;11.420;2023-04-15T08:33:33;62597.66;;;-142.35;100.00
8585;BME280;7180;52.742;11.420;2023-04-15T08:35:58;62597.66;;;-142.35;100.00
8585;BME280;7180;52.742;11.420;2023-04-15T08:38:24;62597.66;;;-142.35;100.00
8585;BME280;7180;52.742;11.420;2023-04-15T08:40:49;62597.66;;;-142.35;100.00
8585;BME280;7180;52.742;11.420;2023-04-15T08:43:20;62597.66;;;-142.35;100.00
8585;BME280;7180;52.742;11.420;2023-04-15T08:45:49;62597.66;;;-142.35;100.00
8585;BME280;7180;52.742;11.420;2023-04-15T08:48:16;62597.66;;;-142.35;100.00
8585;BME280;7180;52.742;11.420;2023-04-15T08:50:41;62597.66;;;-142.35;100.00
8585;BME280;7180;52.742;11.420;2023-04-15T08:53:07;62597.66;;;-142.35;100.00
8585;BME280;7180;52.742;11.420;2023-04-15T08:55:35;62597.66;;;-142.35;100.00
8585;BME280;7180;52.742;11.420;2023-04-15T08:58:01;62597.66;;;-142.35;100.00
8585;BME280;7180;52.742;11.420;2023-04-15T09:00:30;62597.66;;;-142.35;100.00
8585;BME280;7180;52.742;11.420;2023-04-15T09:02:57;62597.66;;;-142.35;100.00
8585;BME280;7180;52.742;11.420;2023-04-15T09:05:23;62597.66;;;-142.35;100.00
8585;BME280;7180;52.742;11.420;2023-04-15T09:07:50;62597.66;;;-142.35;100.00
8585;BME280;7180;52.742;11.420;2023-04-15T09:10:15;62597.66;;;-142.35;100.00
8585;BME280;7180;52.742;11.420;2023-04-15T09:12:41;62597.66;;;-142.35;100.00
8585;BME280;7180;52.742;11.420;2023-04-15T09:15:07;62597.66;;;-142.35;100.00
8585;BME280;7180;52.742;11.420;2023-04-15T09:17:41;62597.66;;;-142.35;100.00
8585;BME280;7180;52.742;11.420;2023-04-15T09:20:11;62597.66;;;-142.35;100.00
8585;BME280;7180;52.742;11.420;2023-04-15T09:22:38;62597.66;;;-142.35;100.00
8585;BME280;7180;52.742;11.420;2023-04-15T09:25:24;62597.66;;;-142.35;100.00
8585;BME280;7180;52.742;11.420;2023-04-15T09:27:57;62597.66;;;-142.35;100.00
8585;BME280;7180;52.742;11.420;2023-04-15T09:30:23;62597.66;;;-142.35;100.00
8585;BME280;7180;52.742;11.420;2023-04-15T09:35:19;62597.66;;;-142.35;100.00
8585;BME280;7180;52.742;11.420;2023-04-15T09:37:45;62597.66;;;-142.35;100.00
8585;BME280;7180;52.742;11.420;2023-04-15T09:40:11;62597.66;;;-142.35;100.00
8585;BME280;7180;52.742;11.420;2023-04-15T09:42:53;62597.66;;;-142.35;100.00
8585;BME280;7180;52.742;11.420;2023-04-15T09:45:19;62597.66;;;-142.35;100.00
8585;BME280;7180;52.742;11.420;2023-04-15T09:47:44;62597.66;;;-142.35;100.00
8585;BME280;7180;52.742;11.420;2023-04-15T09:50:10;62597.66;;;-142.35;100.00
8585;BME280;7180;52.742;11.420;2023-04-15T09:52:40;62597.66;;;-142.35;100.00
8585;BME280;7180;52.742;11.420;2023-04-15T09:55:07;62597.66;;;-142.35;100.00
8585;BME280;7180;52.742;11.420;2023-04-15T09:57:36;62597.66;;;-142.35;100.00
8585;BME280;7180;52.742;11.420;2023-04-15T10:00:06;62597.66;;;-142.35;100.00
8585;BME280;7180;52.742;11.420;2023-04-15T10:02:33;62597.66;;;-142.35;100.00
8585;BME280;7180;52.742;11.420;2023-04-15T10:04:58;62597.66;;;-142.35;100.00
8585;BME280;7180;52.742;11.420;2023-04-15T10:07:25;62597.66;;;-142.35;100.00
8585;BME280;7180;52.742;11.420;2023-04-15T10:09:51;62597.66;;;-142.35;100.00
8585;BME280;7180;52.742;11.420;2023-04-15T10:12:18;62597.66;;;-142.35;100.00
8585;BME280;7180;52.742;11.420;2023-04-15T10:14:44;62597.66;;;-142.35;100.00
8585;BME280;7180;52.742;11.420;2023-04-15T10:17:12;62597.66;;;-142.35;100.00
8585;BME280;7180;52.742;11.420;2023-04-15T10:19:41;62597.66;;;-142.35;100.00
8585;BME280;7180;52.742;11.420;2023-04-15T10:22:07;62597.66;;;-142.35;100.00
8585;BME280;7180;52.742;11.420;2023-04-15T10:24:33;62597.66;;;-142.35;100.00
8585;BME280;7180;52.742;11.420;2023-04-15T10:26:59;62597.66;;;-142.35;100.00
8585;BME280;7180;52.742;11.420;2023-04-15T10:29:25;62597.66;;;-142.35;100.00
8585;BME280;7180;52.742;11.420;2023-04-15T10:31:54;62597.66;;;-142.35;100.00
8585;BME280;7180;52.742;11.420;2023-04-15T10:34:20;62597.66;;;-142.35;100.00
8585;BME280;7180;52.742;11.420;2023-04-15T10:36:46;62597.66;;;-142.35;100.00
8585;BME280;7180;52.742;11.420;2023-04-15T10:39:41;62597.66;;;-142.35;100.00
8585;BME280;7180;52.742;11.420;2023-04-15T10:42:09;62597.66;;;-142.35;100.00
8585;BME280;7180;52.742;11.420;2023-04-15T10:44:36;62597.66;;;-142.35;100.00
8585;BME280;7180;52.742;11.420;2023-04-15T10:47:09;62597.66;;;-142.35;100.00
8585;BME280;7180;52.742;11.420;2023-04-15T10:49:42;62597.66;;;-142.35;100.00
8585;BME280;7180;52.742;11.420;2023-04-15T10:52:09;62597.66;;;-142.35;100.00
8585;BME280;7180;52.742;11.420;2023-04-15T10:54:35;62597.66;;;-142.35;100.00
8585;BME280;7180;52.742;11.420;2023-04-15T10:59:28;62597.66;;;-142.35;100.00
8585;BME280;7180;52.742;11.420;2023-04-15T11:02:02;62597.66;;;-142.35;100.00
8585;BME280;7180;52.742;11.420;2023-04-15T11:04:56;62597.66;;;-142.35;100.00
8585;BME280;7180;52.742;11.420;2023-04-15T11:07:39;62597.66;;;-142.35;100.00
8585;BME280;7180;52.742;11.420;2023-04-15T11:12:56;62597.66;;;-142.35;100.00
8585;BME280;7180;52.742;11.420;2023-04-15T11:20:33;62597.66;;;-142.35;100.00
8585;BME280;7180;52.742;11.420;2023-04-15T11:22:59;62597.66;;;-142.35;100.00
8585;BME280;7180;52.742;11.420;2023-04-15T11:25:25;62597.66;;;-142.35;100.00
8585;BME280;7180;52.742;11.420;2023-04-15T11:27:52;62597.66;;;-142.35;100.00
8585;BME280;7180;52.742;11.420;2023-04-15T11:30:22;62597.66;;;-142.35;100.00
8585;BME280;7180;52.742;11.420;2023-04-15T11:32:49;62597.66;;;-142.35;100.00
8585;BME280;7180;52.742;11.420;2023-04-15T11:35:18;62597.66;;;-142.35;100.00
8585;BME280;7180;52.742;11.420;2023-04-15T11:37:44;62597.66;;;-142.35;100.00
8585;BME280;7180;52.742;11.420;2023-04-15T11:40:10;62597.66;;;-142.35;100.00
8585;BME280;7180;52.742;11.420;2023-04-15T11:42:36;62597.66;;;-142.35;100.00
8585;BME280;7180;52.742;11.420;2023-04-15T11:45:12;62597.66;;;-142.35;100.00
8585;BME280;7180;52.742;11.420;2023-04-15T11:47:41;62597.66;;;-142.35;100.00
8585;BME280;7180;52.742;11.420;2023-04-15T11:50:17;62597.66;;;-142.35;100.00
8585;BME280;7180;52.742;11.420;2023-04-15T11:53:04;62597.66;;;-142.35;100.00
8585;BME280;7180;52.742;11.420;2023-04-15T11:55:30;62597.66;;;-142.35;100.00
8585;BME280;7180;52.742;11.420;2023-04-15T11:58:16;62597.66;;;-142.35;100.00
8585;BME280;7180;52.742;11.420;2023-04-15T12:00:53;62597.66;;;-142.35;100.00
8585;BME280;7180;52.742;11.420;2023-04-15T12:03:27;62597.66;;;-142.35;100.00
8585;BME280;7180;52.742;11.420;2023-04-15T12:06:09;62597.66;;;-142.35;100.00
8585;BME280;7180;52.742;11.420;2023-04-15T12:11:21;62597.66;;;-142.35;100.00
8585;BME280;7180;52.742;11.420;2023-04-15T12:13:57;62597.66;;;-142.35;100.00
8585;BME280;7180;52.742;11.420;2023-04-15T12:16:23;62597.66;;;-142.35;100.00
8585;BME280;7180;52.742;11.420;2023-04-15T12:18:53;62597.66;;;-142.35;100.00
8585;BME280;7180;52.742;11.420;2023-04-15T12:21:22;62597.66;;;-142.35;100.00
8585;BME280;7180;52.742;11.420;2023-04-15T12:23:50;62597.66;;;-142.35;100.00
8585;BME280;7180;52.742;11.420;2023-04-15T12:26:16;62597.66;;;-142.35;100.00
8585;BME280;7180;52.742;11.420;2023-04-15T12:28:42;62597.66;;;-142.35;100.00
8585;BME280;7180;52.742;11.420;2023-04-15T12:31:09;62597.66;;;-142.35;100.00
8585;BME280;7180;52.742;11.420;2023-04-15T12:33:34;62597.66;;;-142.35;100.00
8585;BME280;7180;52.742;11.420;2023-04-15T12:36:00;62597.66;;;-142.35;100.00
8585;BME280;7180;52.742;11.420;2023-04-15T12:38:25;62597.66;;;-142.35;100.00
8585;BME280;7180;52.742;11.420;2023-04-15T12:40:50;62597.66;;;-142.35;100.00
8585;BME280;7180;52.742;11.420;2023-04-15T12:43:16;62597.66;;;-142.35;100.00
8585;BME280;7180;52.742;11.420;2023-04-15T12:45:41;62597.66;;;-142.35;100.00
8585;BME280;7180;52.742;11.420;2023-04-15T12:48:07;62597.66;;;-142.35;100.00
8585;BME280;7180;52.742;11.420;2023-04-15T12:50:34;62597.66;;;-142.35;100.00
8585;BME280;7180;52.742;11.420;2023-04-15T12:52:59;62597.66;;;-142.35;100.00
8585;BME280;7180;52.742;11.420;2023-04-15T12:55:24;62597.66;;;-142.35;100.00
8585;BME280;7180;52.742;11.420;2023-04-15T12:57:50;62597.66;;;-142.35;100.00